KBUF

Buffalo Niagara International Airport

Buffalo, New York, USA
METAR KBUF 140054Z 15005KT 10SM OVC040 03/M01 A3028 RMK AO2 SLP263 T00281011
Observed Flight Rules
Dec-14 @ 00:54 UTC (54 minutes ago) Visual Flight Rules
Wind Visibility Clouds
150° at 5 knots 10 miles
  • Overcast at 4,000' AGL
Temperatures Readings
Current 3°C / 37°F
Dewpoint -1°C / 30°F
Humidity 75%
Altimeter 30.28" Hg
Pressure 1026.3 hPa
Elevation 211
METAR KBUF 140054Z 15005KT 10SM OVC040 03/M01 A3028 RMK AO2 SLP263 T00281011
Observed Flight Rules
Dec-14 @ 00:54 UTC
(54 minutes ago)
VFR
Wind Visibility
150° at 5 knots 10 miles
Clouds
  • Overcast at 4,000' AGL
Temperature Dewpoint
3°C / 37°F -1°C / 30°F
Humidity Altimeter Pressure
75% 30.28" Hg 1026.3 hPa